C2 — ZCYD3 — position and weather

sailwx.info

Track history (hours):
 
Tides and Currents Weather Stations Pressure Air Temp Water Temp Dewpoint Dewpoint Depression Visibility Wind Speed Wind Dir Waves Ship Positions

C2

Last reported at 2017-Aug-22 16:34 UTC. Time now 2017-Sep-24 17:56 UTC.
Position N 43°09' E 005°38'.
Warning: this ship's position is 33 days out of date.

Length 79 m; draft 3.4 m.

Type: Pleasure craft. MMSI: 319268000.

Date/timePositionNaut miles runAvg speedWind from/ knotsBaromVisibWave heightAir tempDewpointWater temp
2017-Aug-22 16:34N 43°09' E 005°38'1 9.8
2017-Aug-22 16:31N 43°09' E 005°37'2 4.0
2017-Aug-22 16:00N 43°07' E 005°36'3 4.1
2017-Aug-22 15:22N 43°09' E 005°38'513.9
2017-Aug-22 15:00N 43°05' E 005°34'714.8
2017-Aug-22 14:31N 42°59' E 005°28'714.6
2017-Aug-22 14:00N 42°53' E 005°22'714.7
2017-Aug-22 13:30N 42°47' E 005°17'714.6
2017-Aug-22 13:00N 42°41' E 005°11'714.5
2017-Aug-22 12:30N 42°35' E 005°05'714.5
2017-Aug-22 12:00N 42°29' E 004°59'815.0
2017-Aug-22 11:30N 42°23' E 004°53'815.4
2017-Aug-22 11:00N 42°17' E 004°47'1115.5
2017-Aug-22 10:15N 42°08' E 004°38'416.0
2017-Aug-22 10:00N 42°04' E 004°35'2915.7
2017-Aug-22 08:09N 41°41' E 004°12'215.0
2017-Aug-22 08:00N 41°39' E 004°10'715.0
2017-Aug-22 07:30N 41°33' E 004°05'714.7
2017-Aug-22 07:00N 41°27' E 003°59'1515.2
2017-Aug-22 06:01N 41°15' E 003°47'115.3
2017-Aug-22 05:58N 41°14' E 003°47'715.1
2017-Aug-22 05:30N 41°09' E 003°41'914.9
2017-Aug-22 04:54N 41°01' E 003°34'614.8
2017-Aug-22 04:30N 40°57' E 003°30'815.0
2017-Aug-22 04:00N 40°50' E 003°24'714.6
2017-Aug-22 03:31N 40°45' E 003°18'714.6
2017-Aug-22 03:00N 40°39' E 003°12'714.5
2017-Aug-22 02:30N 40°33' E 003°07'714.8
2017-Aug-22 02:00N 40°27' E 003°01'714.8
2017-Aug-22 01:30N 40°21' E 002°56'714.6
2017-Aug-22 01:00N 40°15' E 002°50'714.7
2017-Aug-22 00:30N 40°09' E 002°44'815.0
2017-Aug-22 00:00N 40°03' E 002°38'715.0
2017-Aug-21 23:30N 39°57' E 002°33'814.9
2017-Aug-21 23:00N 39°51' E 002°27'714.8
2017-Aug-21 22:30N 39°45' E 002°21'2714.9
2017-Aug-21 20:43N 39°24' E 002°00'315.2
2017-Aug-21 20:30N 39°21' E 001°58'815.0
2017-Aug-21 20:00N 39°15' E 001°52'815.1
2017-Aug-21 19:30N 39°09' E 001°47'1014.6
2017-Aug-21 18:50N 39°01' E 001°39'514.8
2017-Aug-21 18:30N 38°57' E 001°35'714.8
2017-Aug-21 18:00N 38°54' E 001°27'1 1.2
2017-Aug-21 17:25N 38°54' E 001°26'0 0.0
2017-Aug-21 16:58N 38°54' E 001°26'0 0.0
2017-Aug-21 16:28N 38°54' E 001°26'0 0.0
2017-Aug-21 15:58N 38°54' E 001°26'0 0.0
2017-Aug-21 15:31N 38°54' E 001°26'0 0.0
2017-Aug-21 14:58N 38°54' E 001°26'0 0.0
2017-Aug-21 14:30N 38°54' E 001°26'8 0.9
2017-Aug-21 05:59N 38°46' E 001°25'611.8
2017-Aug-21 05:30N 38°51' E 001°29'714.9
2017-Aug-21 05:00N 38°55' E 001°36'714.7
2017-Aug-21 04:30N 38°60' E 001°44'714.6
2017-Aug-21 04:00N 39°04' E 001°52'714.7
2017-Aug-21 03:30N 39°08' E 001°59'714.6
2017-Aug-21 03:00N 39°12' E 002°07'714.6
2017-Aug-21 02:30N 39°17' E 002°15'714.7
2017-Aug-21 02:00N 39°21' E 002°22'714.8
2017-Aug-21 01:31N 39°25' E 002°30'714.8
2017-Aug-21 01:00N 39°31' E 002°37'3 6.4
2017-Aug-21 00:28N 39°33' E 002°39'0 0.0
2017-Aug-20 23:58N 39°33' E 002°39'0 0.0
2017-Aug-20 23:28N 39°33' E 002°39'0 0.0
2017-Aug-20 22:58N 39°33' E 002°39'0 0.0
2017-Aug-20 22:28N 39°33' E 002°39'0 0.0
2017-Aug-20 21:55N 39°33' E 002°39'0 0.0
2017-Aug-20 21:28N 39°33' E 002°39'0 0.0
2017-Aug-20 20:58N 39°33' E 002°39'0 0.0
2017-Aug-20 20:28N 39°33' E 002°39'0 0.1
2017-Aug-20 19:58N 39°33' E 002°40'0 0.0
2017-Aug-20 19:28N 39°33' E 002°40'0 0.0
2017-Aug-20 18:58N 39°33' E 002°40'0 0.0
2017-Aug-20 18:28N 39°33' E 002°40'1 2.1
2017-Aug-20 18:00N 39°33' E 002°40'714.0
2017-Aug-20 17:31N 39°26' E 002°42'714.2
2017-Aug-20 17:00N 39°21' E 002°49'713.9
2017-Aug-20 16:30N 39°19' E 002°58'0 0.1
2017-Aug-20 15:58N 39°19' E 002°58'0 0.0
2017-Aug-20 15:28N 39°19' E 002°58'0 0.1
2017-Aug-20 14:58N 39°19' E 002°58'0 0.1
2017-Aug-20 14:28N 39°19' E 002°58'0 0.1
2017-Aug-20 13:58N 39°19' E 002°58'2 4.7
2017-Aug-20 13:30N 39°20' E 002°55'714.3
2017-Aug-20 13:01N 39°22' E 002°46'713.9
2017-Aug-20 12:30N 39°28' E 002°41'611.7
2017-Aug-20 12:00N 39°33' E 002°40'0 0.1
2017-Aug-20 11:25N 39°33' E 002°40'0 0.0
2017-Aug-20 10:58N 39°33' E 002°40'0 0.0
2017-Aug-20 10:28N 39°33' E 002°40'0 0.0
2017-Aug-20 09:58N 39°33' E 002°40'0 0.0
2017-Aug-20 09:25N 39°33' E 002°40'3 7.8
2017-Aug-20 09:00N 39°30' E 002°38'612.3
2017-Aug-20 08:30N 39°27' E 002°31'3 0.2
2017-Aug-19 15:31N 39°29' E 002°28'0 0.0
2017-Aug-19 15:13N 39°29' E 002°28'0 0.0
2017-Aug-19 11:38N 39°29' E 002°28'1 0.2
2017-Aug-19 05:47N 39°28' E 002°28'0 0.0
2017-Aug-18 18:30N 39°28' E 002°29'2 3.1
2017-Aug-18 18:00N 39°29' E 002°27'813.5
2017-Aug-18 17:27N 39°33' E 002°19'510.3
2017-Aug-18 17:00N 39°37' E 002°21'714.1
2017-Aug-18 16:31N 39°41' E 002°29'714.1
2017-Aug-18 16:00N 39°45' E 002°36'2 1.4
2017-Aug-18 14:43N 39°46' E 002°39'0 0.0
2017-Aug-18 14:30N 39°46' E 002°39'0 0.0
2017-Aug-18 13:30N 39°46' E 002°39'0 0.0
2017-Aug-18 12:59N 39°46' E 002°39'0 0.0
2017-Aug-18 12:30N 39°46' E 002°39'0 0.0
2017-Aug-18 11:59N 39°46' E 002°39'0 0.0
2017-Aug-18 11:29N 39°46' E 002°39'0 0.9
2017-Aug-18 11:00N 39°46' E 002°39'3 4.9
2017-Aug-18 10:28N 39°48' E 002°41'0 0.0
2017-Aug-18 09:58N 39°48' E 002°41'0 0.0
2017-Aug-18 09:28N 39°48' E 002°41'0 0.0
2017-Aug-18 08:58N 39°48' E 002°41'0 0.0
2017-Aug-18 08:25N 39°48' E 002°41'0 0.0
2017-Aug-18 07:55N 39°48' E 002°41'0 0.0
2017-Aug-18 07:25N 39°48' E 002°41'0 0.0
2017-Aug-18 06:58N 39°48' E 002°41'0 0.0
2017-Aug-18 06:28N 39°48' E 002°41'0 0.0
2017-Aug-18 05:58N 39°48' E 002°41'0 0.0
2017-Aug-18 05:28N 39°48' E 002°41'0 0.0
2017-Aug-18 04:58N 39°48' E 002°41'0 0.0
2017-Aug-18 04:28N 39°48' E 002°41'0 0.0
2017-Aug-18 03:58N 39°48' E 002°41'0 0.0
2017-Aug-18 03:22N 39°48' E 002°41'0 0.0
2017-Aug-18 02:55N 39°48' E 002°41'0 0.0
2017-Aug-18 02:22N 39°48' E 002°41'0 0.0
2017-Aug-18 01:58N 39°48' E 002°41'0 0.0
2017-Aug-18 01:28N 39°48' E 002°41'0 0.0
2017-Aug-18 00:58N 39°48' E 002°41'0 0.0
2017-Aug-18 00:28N 39°48' E 002°41'0 0.0
2017-Aug-17 23:55N 39°48' E 002°41'0 0.0
2017-Aug-17 23:25N 39°48' E 002°41'1 2.5
2017-Aug-17 23:00N 39°49' E 002°41'75 2.6
2017-Aug-16 18:13N 39°52' E 004°20'2 9.9
2017-Aug-16 18:01N 39°54' E 004°19'1113.4
2017-Aug-16 17:12N 40°03' E 004°12'614.0
2017-Aug-16 16:46N 40°06' E 004°05'1 2.0
2017-Aug-16 16:14N 40°05' E 004°05'0 0.7
2017-Aug-16 16:00N 40°05' E 004°05'0 0.3
2017-Aug-16 15:30N 40°05' E 004°05'0 0.5
2017-Aug-16 15:00N 40°05' E 004°05'0 0.2
2017-Aug-16 14:22N 40°05' E 004°05'3 0.3
2017-Aug-16 04:00N 40°03' E 004°08'0 0.0
2017-Aug-16 01:39N 40°03' E 004°08'0 0.0
2017-Aug-15 21:27N 40°03' E 004°08'0 0.0
2017-Aug-15 20:51N 40°03' E 004°08'0 0.0
2017-Aug-15 20:15N 40°03' E 004°08'0 0.0
2017-Aug-15 19:42N 40°03' E 004°08'0 0.0
2017-Aug-15 19:30N 40°03' E 004°08'0 0.0
2017-Aug-15 19:00N 40°03' E 004°08'3 4.8
2017-Aug-15 18:27N 40°03' E 004°12'3 7.2
2017-Aug-15 18:00N 40°00' E 004°13'0 0.0
2017-Aug-15 17:24N 40°00' E 004°13'0 0.0
2017-Aug-15 16:57N 40°00' E 004°13'0 0.0
2017-Aug-15 16:30N 40°00' E 004°13'0 0.0
2017-Aug-15 16:00N 40°00' E 004°13'0 0.0
2017-Aug-15 15:18N 40°00' E 004°13'3 2.1
2017-Aug-15 13:47N 39°58' E 004°16'0 0.0
2017-Aug-15 13:29N 39°58' E 004°16'0 0.0
2017-Aug-15 12:53N 39°58' E 004°16'0 0.0
2017-Aug-15 12:29N 39°58' E 004°16'  
Track history (hours):
 
Tides and Currents Weather Stations Pressure Air Temp Water Temp Dewpoint Dewpoint Depression Visibility Wind Speed Wind Dir Waves Ship Positions

C2

Last reported at 2017-Aug-22 16:34 UTC. Time now 2017-Sep-24 17:56 UTC.
Position N 43°09' E 005°38'.
Warning: this ship's position is 33 days out of date.

Length 79 m; draft 3.4 m.

Type: Pleasure craft. MMSI: 319268000.

Date/timePositionNaut miles runAvg speedWind from/ knotsBaromVisibWave heightAir tempDewpointWater temp
2017-Aug-22 16:34N 43°09' E 005°38'1 9.8
2017-Aug-22 16:31N 43°09' E 005°37'2 4.0
2017-Aug-22 16:00N 43°07' E 005°36'3 4.1
2017-Aug-22 15:22N 43°09' E 005°38'513.9
2017-Aug-22 15:00N 43°05' E 005°34'714.8
2017-Aug-22 14:31N 42°59' E 005°28'714.6
2017-Aug-22 14:00N 42°53' E 005°22'714.7
2017-Aug-22 13:30N 42°47' E 005°17'714.6
2017-Aug-22 13:00N 42°41' E 005°11'714.5
2017-Aug-22 12:30N 42°35' E 005°05'714.5
2017-Aug-22 12:00N 42°29' E 004°59'815.0
2017-Aug-22 11:30N 42°23' E 004°53'815.4
2017-Aug-22 11:00N 42°17' E 004°47'1115.5
2017-Aug-22 10:15N 42°08' E 004°38'416.0
2017-Aug-22 10:00N 42°04' E 004°35'2915.7
2017-Aug-22 08:09N 41°41' E 004°12'215.0
2017-Aug-22 08:00N 41°39' E 004°10'715.0
2017-Aug-22 07:30N 41°33' E 004°05'714.7
2017-Aug-22 07:00N 41°27' E 003°59'1515.2
2017-Aug-22 06:01N 41°15' E 003°47'115.3
2017-Aug-22 05:58N 41°14' E 003°47'715.1
2017-Aug-22 05:30N 41°09' E 003°41'914.9
2017-Aug-22 04:54N 41°01' E 003°34'614.8
2017-Aug-22 04:30N 40°57' E 003°30'815.0
2017-Aug-22 04:00N 40°50' E 003°24'714.6
2017-Aug-22 03:31N 40°45' E 003°18'714.6
2017-Aug-22 03:00N 40°39' E 003°12'714.5
2017-Aug-22 02:30N 40°33' E 003°07'714.8
2017-Aug-22 02:00N 40°27' E 003°01'714.8
2017-Aug-22 01:30N 40°21' E 002°56'714.6
2017-Aug-22 01:00N 40°15' E 002°50'714.7
2017-Aug-22 00:30N 40°09' E 002°44'815.0
2017-Aug-22 00:00N 40°03' E 002°38'715.0
2017-Aug-21 23:30N 39°57' E 002°33'814.9
2017-Aug-21 23:00N 39°51' E 002°27'714.8
2017-Aug-21 22:30N 39°45' E 002°21'2714.9
2017-Aug-21 20:43N 39°24' E 002°00'315.2
2017-Aug-21 20:30N 39°21' E 001°58'815.0
2017-Aug-21 20:00N 39°15' E 001°52'815.1
2017-Aug-21 19:30N 39°09' E 001°47'1014.6
2017-Aug-21 18:50N 39°01' E 001°39'514.8
2017-Aug-21 18:30N 38°57' E 001°35'714.8
2017-Aug-21 18:00N 38°54' E 001°27'1 1.2
2017-Aug-21 17:25N 38°54' E 001°26'0 0.0
2017-Aug-21 16:58N 38°54' E 001°26'0 0.0
2017-Aug-21 16:28N 38°54' E 001°26'0 0.0
2017-Aug-21 15:58N 38°54' E 001°26'0 0.0
2017-Aug-21 15:31N 38°54' E 001°26'0 0.0
2017-Aug-21 14:58N 38°54' E 001°26'0 0.0
2017-Aug-21 14:30N 38°54' E 001°26'8 0.9
2017-Aug-21 05:59N 38°46' E 001°25'611.8
2017-Aug-21 05:30N 38°51' E 001°29'714.9
2017-Aug-21 05:00N 38°55' E 001°36'714.7
2017-Aug-21 04:30N 38°60' E 001°44'714.6
2017-Aug-21 04:00N 39°04' E 001°52'714.7
2017-Aug-21 03:30N 39°08' E 001°59'714.6
2017-Aug-21 03:00N 39°12' E 002°07'714.6
2017-Aug-21 02:30N 39°17' E 002°15'714.7
2017-Aug-21 02:00N 39°21' E 002°22'714.8
2017-Aug-21 01:31N 39°25' E 002°30'714.8
2017-Aug-21 01:00N 39°31' E 002°37'3 6.4
2017-Aug-21 00:28N 39°33' E 002°39'0 0.0
2017-Aug-20 23:58N 39°33' E 002°39'0 0.0
2017-Aug-20 23:28N 39°33' E 002°39'0 0.0
2017-Aug-20 22:58N 39°33' E 002°39'0 0.0
2017-Aug-20 22:28N 39°33' E 002°39'0 0.0
2017-Aug-20 21:55N 39°33' E 002°39'0 0.0
2017-Aug-20 21:28N 39°33' E 002°39'0 0.0
2017-Aug-20 20:58N 39°33' E 002°39'0 0.0
2017-Aug-20 20:28N 39°33' E 002°39'0 0.1
2017-Aug-20 19:58N 39°33' E 002°40'0 0.0
2017-Aug-20 19:28N 39°33' E 002°40'0 0.0
2017-Aug-20 18:58N 39°33' E 002°40'0 0.0
2017-Aug-20 18:28N 39°33' E 002°40'1 2.1
2017-Aug-20 18:00N 39°33' E 002°40'714.0
2017-Aug-20 17:31N 39°26' E 002°42'714.2
2017-Aug-20 17:00N 39°21' E 002°49'713.9
2017-Aug-20 16:30N 39°19' E 002°58'0 0.1
2017-Aug-20 15:58N 39°19' E 002°58'0 0.0
2017-Aug-20 15:28N 39°19' E 002°58'0 0.1
2017-Aug-20 14:58N 39°19' E 002°58'0 0.1
2017-Aug-20 14:28N 39°19' E 002°58'0 0.1
2017-Aug-20 13:58N 39°19' E 002°58'2 4.7
2017-Aug-20 13:30N 39°20' E 002°55'714.3
2017-Aug-20 13:01N 39°22' E 002°46'713.9
2017-Aug-20 12:30N 39°28' E 002°41'611.7
2017-Aug-20 12:00N 39°33' E 002°40'0 0.1
2017-Aug-20 11:25N 39°33' E 002°40'0 0.0
2017-Aug-20 10:58N 39°33' E 002°40'0 0.0
2017-Aug-20 10:28N 39°33' E 002°40'0 0.0
2017-Aug-20 09:58N 39°33' E 002°40'0 0.0
2017-Aug-20 09:25N 39°33' E 002°40'3 7.8
2017-Aug-20 09:00N 39°30' E 002°38'612.3
2017-Aug-20 08:30N 39°27' E 002°31'3 0.2
2017-Aug-19 15:31N 39°29' E 002°28'0 0.0
2017-Aug-19 15:13N 39°29' E 002°28'0 0.0
2017-Aug-19 11:38N 39°29' E 002°28'1 0.2
2017-Aug-19 05:47N 39°28' E 002°28'0 0.0
2017-Aug-18 18:30N 39°28' E 002°29'2 3.1
2017-Aug-18 18:00N 39°29' E 002°27'813.5
2017-Aug-18 17:27N 39°33' E 002°19'510.3
2017-Aug-18 17:00N 39°37' E 002°21'714.1
2017-Aug-18 16:31N 39°41' E 002°29'714.1
2017-Aug-18 16:00N 39°45' E 002°36'2 1.4
2017-Aug-18 14:43N 39°46' E 002°39'0 0.0
2017-Aug-18 14:30N 39°46' E 002°39'0 0.0
2017-Aug-18 13:30N 39°46' E 002°39'0 0.0
2017-Aug-18 12:59N 39°46' E 002°39'0 0.0
2017-Aug-18 12:30N 39°46' E 002°39'0 0.0
2017-Aug-18 11:59N 39°46' E 002°39'0 0.0
2017-Aug-18 11:29N 39°46' E 002°39'0 0.9
2017-Aug-18 11:00N 39°46' E 002°39'3 4.9
2017-Aug-18 10:28N 39°48' E 002°41'0 0.0
2017-Aug-18 09:58N 39°48' E 002°41'0 0.0
2017-Aug-18 09:28N 39°48' E 002°41'0 0.0
2017-Aug-18 08:58N 39°48' E 002°41'0 0.0
2017-Aug-18 08:25N 39°48' E 002°41'0 0.0
2017-Aug-18 07:55N 39°48' E 002°41'0 0.0
2017-Aug-18 07:25N 39°48' E 002°41'0 0.0
2017-Aug-18 06:58N 39°48' E 002°41'0 0.0
2017-Aug-18 06:28N 39°48' E 002°41'0 0.0
2017-Aug-18 05:58N 39°48' E 002°41'0 0.0
2017-Aug-18 05:28N 39°48' E 002°41'0 0.0
2017-Aug-18 04:58N 39°48' E 002°41'0 0.0
2017-Aug-18 04:28N 39°48' E 002°41'0 0.0
2017-Aug-18 03:58N 39°48' E 002°41'0 0.0
2017-Aug-18 03:22N 39°48' E 002°41'0 0.0
2017-Aug-18 02:55N 39°48' E 002°41'0 0.0
2017-Aug-18 02:22N 39°48' E 002°41'0 0.0
2017-Aug-18 01:58N 39°48' E 002°41'0 0.0
2017-Aug-18 01:28N 39°48' E 002°41'0 0.0
2017-Aug-18 00:58N 39°48' E 002°41'0 0.0
2017-Aug-18 00:28N 39°48' E 002°41'0 0.0
2017-Aug-17 23:55N 39°48' E 002°41'0 0.0
2017-Aug-17 23:25N 39°48' E 002°41'1 2.5
2017-Aug-17 23:00N 39°49' E 002°41'75 2.6
2017-Aug-16 18:13N 39°52' E 004°20'2 9.9
2017-Aug-16 18:01N 39°54' E 004°19'1113.4
2017-Aug-16 17:12N 40°03' E 004°12'614.0
2017-Aug-16 16:46N 40°06' E 004°05'1 2.0
2017-Aug-16 16:14N 40°05' E 004°05'0 0.7
2017-Aug-16 16:00N 40°05' E 004°05'0 0.3
2017-Aug-16 15:30N 40°05' E 004°05'0 0.5
2017-Aug-16 15:00N 40°05' E 004°05'0 0.2
2017-Aug-16 14:22N 40°05' E 004°05'3 0.3
2017-Aug-16 04:00N 40°03' E 004°08'0 0.0
2017-Aug-16 01:39N 40°03' E 004°08'0 0.0
2017-Aug-15 21:27N 40°03' E 004°08'0 0.0
2017-Aug-15 20:51N 40°03' E 004°08'0 0.0
2017-Aug-15 20:15N 40°03' E 004°08'0 0.0
2017-Aug-15 19:42N 40°03' E 004°08'0 0.0
2017-Aug-15 19:30N 40°03' E 004°08'0 0.0
2017-Aug-15 19:00N 40°03' E 004°08'3 4.8
2017-Aug-15 18:27N 40°03' E 004°12'3 7.2
2017-Aug-15 18:00N 40°00' E 004°13'0 0.0
2017-Aug-15 17:24N 40°00' E 004°13'0 0.0
2017-Aug-15 16:57N 40°00' E 004°13'0 0.0
2017-Aug-15 16:30N 40°00' E 004°13'0 0.0
2017-Aug-15 16:00N 40°00' E 004°13'0 0.0
2017-Aug-15 15:18N 40°00' E 004°13'3 2.1
2017-Aug-15 13:47N 39°58' E 004°16'0 0.0
2017-Aug-15 13:29N 39°58' E 004°16'0 0.0
2017-Aug-15 12:53N 39°58' E 004°16'0 0.0
2017-Aug-15 12:29N 39°58' E 004°16'  

Dump ship's entire track history